Portada
METAR-TAF:

METAR-TAF

Aeroports :

Destin-Fort Walton Beach Airport

Destin, Florida, Estats Units d'Amèrica

latitud: 30-23-36N, longitud: 086-28-03W, altitud: 6 m

Observació

L'informe es va fer fa 28 minuts, a les 16:53 UTC
Vent 7 kt del Est/Sud-Est
Temperatura 32°C
Humitat 36%
Pressió 1019 hPa
Visibilitat: 16.1 km
Cel clar

METAR: KDTS 011653Z 12007KT 10SM CLR 32/15 A3010 RMK AO2 SLP190 T03170150

Hora: 12:21 (17:21 UTC)


TAF: manca

Observacions i pronòstics meteorològics de més de 4000 aeroports (METAR i TAF).

Les estacions disponibles són els punts grocs i vermells al mapa.

Posi el ratolí al punt desitjat per veure el nom de l'estació.

Feu clic per veure les observacions i els pronòstics meteorològics.

Per canviar el mapa: feu clic els botons verds amb una creu de color negre per apropar; al botó verd amb un guió per allunyar la imatge; o en les fletxes verdes per a mapes adjacents.


METAR-TAF: